Bangor, ME

4:00 AM EDT on September 26, 2016 (GMT -0400)
Essex St Hill | | Change Station
Active Advisory: Frost Advisory

Elev 208 ft 44.82 °N, 68.77 °W | Updated 2 seconds ago

Clear
Clear
39.9 °F
Feels Like 40 °F
N
0.0
Wind Variable Wind from WNW
Gusts 0.0 mph

Today
High -- | Low -- °F
--% Chance of Precip.
Yesterday
High -- | Low -- °F
Precip. -- in
Pressure 30.14 in
Visibility 10.0 miles
Clouds Clear
Windchill 40 °F
Dew Point 36 °F
Humidity 84%
Rainfall 0.00 in
Snow Depth Not available.
6:27 AM 6:24 PM
Waning Crescent, 21% visible
METAR KBGR 260753Z 25004KT 10SM CLR 04/03 A3014 RMK AO2 SLP205 T00440028
Pressure 30.14 in
Visibility 10.0 miles
Clouds Clear
Windchill 40 °F
Dew Point 36 °F
Humidity 84%
Rainfall 0.00 in
Snow Depth Not available.
6:27 AM 6:24 PM
Waning Crescent, 21% visible
METAR KBGR 260753Z 25004KT 10SM CLR 04/03 A3014 RMK AO2 SLP205 T00440028

10-Day Weather Forecast

Almanac

Astronomy

Sep. 26, 2016 Rise Set
Actual Time
Civil Twilight
Nautical Twilight
Astronomical Twilight
Moon
Length of Visible Light
Length of Day
Tomorrow will be .
, % of the Moon is Illuminated

Today's Extremes

State Highs State Lows

Community

WunderPhotos

Upload Photos

1,941,853 photos uploaded!

WunderBlog® & News

Nearby

Air Quality

  Air Quality AQ Index Pollutant
Not available.

Snow Depth

Station Depth Elevation

Earthquake Activity

City Distance Mag. Time & Date
Minimum magnitude displayed is 2.5.

Coastal Water Temperatures

Place Temperature

Stations

Nearby Weather Stations

Station Location Temp. Windchill Dew Point Humidity Wind Precip. Elev Updated Type
                   

Watches & Warnings

Frost Advisory
Issued: 10:22 PM EDT Sep. 25, 2016 – National Weather Service

... Frost advisory remains in effect until 7 am EDT Monday...

* temperatures... in the mid 30s. Some sheltered locations could
drop into the lower 30s.

* Timing... overnight into early Monday morning.

* Impacts... sensitive outdoor plants may be damaged or killed if
left outside.

Precautionary/preparedness actions...

A frost advisory means that frost is likely. Sensitive outdoor
plants may be killed if left uncovered.



Norcross